createdAt,value
2022-10-15T00:00:34.595Z,0.00
2022-10-15T00:01:34.601Z,0.00
2022-10-15T00:02:34.523Z,0.00
2022-10-15T00:03:34.465Z,0.00
2022-10-15T00:04:34.444Z,0.00
2022-10-15T00:05:34.382Z,0.00
2022-10-15T00:06:34.335Z,0.00
2022-10-15T00:07:34.288Z,0.00
2022-10-15T00:08:34.244Z,0.00
2022-10-15T00:09:34.204Z,0.00
2022-10-15T00:10:34.182Z,0.00
2022-10-15T00:11:34.118Z,0.00
2022-10-15T00:12:34.071Z,0.00
2022-10-15T00:13:34.026Z,0.00
2022-10-15T00:14:33.990Z,0.00
2022-10-15T00:15:33.946Z,0.00
2022-10-15T00:16:33.919Z,0.00
2022-10-15T00:17:33.859Z,0.00
2022-10-15T00:18:33.812Z,0.00
2022-10-15T00:19:33.774Z,0.00
2022-10-15T00:20:33.725Z,0.00
2022-10-15T00:21:33.681Z,0.00
2022-10-15T00:22:33.671Z,0.00
2022-10-15T00:23:33.595Z,0.00
2022-10-15T00:24:33.550Z,0.00
2022-10-15T00:25:33.510Z,0.00
2022-10-15T00:26:33.463Z,0.00
2022-10-15T00:27:33.424Z,0.00
2022-10-15T00:28:34.426Z,0.00
2022-10-15T00:29:33.332Z,0.00
2022-10-15T00:30:33.296Z,0.00
2022-10-15T00:31:33.248Z,0.00
2022-10-15T00:32:33.202Z,0.00
2022-10-15T00:33:33.158Z,0.00
2022-10-15T00:34:33.124Z,0.00
2022-10-15T00:35:33.073Z,0.00
2022-10-15T00:36:33.032Z,0.00
2022-10-15T00:37:32.995Z,0.00
2022-10-15T00:38:32.939Z,0.00
2022-10-15T00:39:32.908Z,0.00
2022-10-15T00:40:32.854Z,0.00
2022-10-15T00:41:32.807Z,0.00
2022-10-15T00:42:32.770Z,0.00
2022-10-15T00:43:32.724Z,0.00
2022-10-15T00:44:32.677Z,0.00
2022-10-15T00:45:32.651Z,0.00
2022-10-15T00:46:32.595Z,0.00
2022-10-15T00:47:32.549Z,0.00
2022-10-15T00:48:32.506Z,0.00
2022-10-15T00:49:32.659Z,0.00
2022-10-15T00:50:32.418Z,0.00
2022-10-15T00:51:32.379Z,0.00
2022-10-15T00:52:32.334Z,0.00
2022-10-15T00:53:32.289Z,0.00
2022-10-15T00:54:32.251Z,0.00
2022-10-15T00:55:32.221Z,0.00
2022-10-15T00:56:32.156Z,0.00
2022-10-15T00:57:32.124Z,0.00
2022-10-15T00:58:32.076Z,0.00
2022-10-15T00:59:32.030Z,0.00
2022-10-15T01:00:31.984Z,0.00
2022-10-15T01:01:32.050Z,0.00
2022-10-15T01:02:31.895Z,0.00
2022-10-15T01:03:31.853Z,0.00
2022-10-15T01:04:31.813Z,0.00
2022-10-15T01:05:31.765Z,0.00
2022-10-15T01:06:31.724Z,0.00
2022-10-15T01:07:31.695Z,0.00
2022-10-15T01:08:31.635Z,0.00
2022-10-15T01:09:31.597Z,0.00
2022-10-15T01:10:31.553Z,0.00
2022-10-15T01:11:31.516Z,0.00
2022-10-15T01:12:31.504Z,0.00
2022-10-15T01:13:31.421Z,0.00
2022-10-15T01:14:31.381Z,0.00
2022-10-15T01:15:31.337Z,0.00
2022-10-15T01:16:31.298Z,0.00
2022-10-15T01:17:31.252Z,0.00
2022-10-15T01:18:31.227Z,0.00
2022-10-15T01:19:31.168Z,0.00
2022-10-15T01:20:31.119Z,0.00
2022-10-15T01:21:31.080Z,0.00
2022-10-15T01:22:31.035Z,0.00
2022-10-15T01:23:30.999Z,0.00
2022-10-15T01:24:31.130Z,0.00
2022-10-15T01:25:30.906Z,0.00
2022-10-15T01:26:30.861Z,0.00
2022-10-15T01:27:30.820Z,0.00
2022-10-15T01:28:30.820Z,0.00
2022-10-15T01:29:30.731Z,0.00
2022-10-15T01:30:30.706Z,0.00
2022-10-15T01:31:30.642Z,0.00
2022-10-15T01:32:30.604Z,0.00
2022-10-15T01:33:30.563Z,0.00
2022-10-15T01:35:50.490Z,0.00
2022-10-15T01:36:50.428Z,0.00
2022-10-15T01:37:50.384Z,0.00
2022-10-15T01:38:50.340Z,0.00
2022-10-15T01:39:50.299Z,0.00
2022-10-15T01:40:50.257Z,0.00
2022-10-15T01:41:50.233Z,0.00
2022-10-15T01:42:50.176Z,0.00
2022-10-15T01:43:50.124Z,0.00
2022-10-15T01:44:50.083Z,0.00
2022-10-15T01:45:50.037Z,0.00
2022-10-15T01:46:49.993Z,0.00
2022-10-15T01:47:49.960Z,0.00
2022-10-15T01:48:49.905Z,0.00
2022-10-15T01:49:49.866Z,0.00
2022-10-15T01:50:49.818Z,0.00
2022-10-15T01:51:49.773Z,0.00
2022-10-15T01:52:49.750Z,0.00
2022-10-15T01:53:49.692Z,0.00
2022-10-15T01:54:49.648Z,0.00
2022-10-15T01:55:49.606Z,0.00
2022-10-15T01:56:49.570Z,0.00
2022-10-15T01:57:49.545Z,0.00
2022-10-15T01:58:49.472Z,0.00
2022-10-15T01:59:49.432Z,0.00
2022-10-15T02:00:49.433Z,0.00
2022-10-15T02:01:49.346Z,0.00
2022-10-15T02:02:49.302Z,0.00
2022-10-15T02:03:49.276Z,0.00
2022-10-15T02:04:49.218Z,0.00
2022-10-15T02:05:49.170Z,0.00
2022-10-15T02:06:49.125Z,0.00
2022-10-15T02:07:49.087Z,0.00
2022-10-15T02:08:49.043Z,0.00
2022-10-15T02:09:49.023Z,0.00
2022-10-15T02:10:48.959Z,0.00
2022-10-15T02:11:48.913Z,0.00
2022-10-15T02:12:48.872Z,0.00
2022-10-15T02:13:48.825Z,0.00
2022-10-15T02:14:48.787Z,0.00
2022-10-15T02:15:48.752Z,0.00
2022-10-15T02:16:48.701Z,0.00
2022-10-15T02:17:48.655Z,0.00
2022-10-15T02:18:48.615Z,0.00
2022-10-15T02:19:48.603Z,0.00
2022-10-15T02:20:48.524Z,0.00
2022-10-15T02:21:48.519Z,0.00
2022-10-15T02:22:48.441Z,0.00
2022-10-15T02:23:48.396Z,0.00
2022-10-15T02:24:51.732Z,0.00
2022-10-15T02:25:48.310Z,0.00
2022-10-15T02:26:48.271Z,0.00
2022-10-15T02:27:48.242Z,0.00
2022-10-15T02:28:48.306Z,0.00
2022-10-15T02:29:48.146Z,0.00
2022-10-15T02:30:48.093Z,0.00
2022-10-15T02:31:48.054Z,0.00
2022-10-15T02:32:48.015Z,0.00
2022-10-15T02:33:47.986Z,0.00
2022-10-15T02:34:47.926Z,0.00
2022-10-15T02:35:47.876Z,0.00
2022-10-15T02:36:47.837Z,0.00
2022-10-15T02:37:47.797Z,0.00
2022-10-15T02:38:47.751Z,0.00
2022-10-15T02:39:47.727Z,0.00
2022-10-15T02:40:47.685Z,0.00
2022-10-15T02:41:47.624Z,0.00
2022-10-15T02:42:47.578Z,0.00
2022-10-15T02:43:47.637Z,0.00
2022-10-15T02:44:47.492Z,0.00
2022-10-15T02:45:47.454Z,0.00
2022-10-15T02:46:47.411Z,0.00
2022-10-15T02:47:47.362Z,0.00
2022-10-15T02:48:47.323Z,0.00
2022-10-15T02:49:47.458Z,0.00
2022-10-15T02:50:47.236Z,0.00
2022-10-15T02:51:47.194Z,0.00
2022-10-15T02:52:47.153Z,0.00
2022-10-15T02:53:47.108Z,0.00
2022-10-15T02:54:47.063Z,0.00
2022-10-15T02:55:47.054Z,0.00
2022-10-15T02:56:46.981Z,0.00
2022-10-15T02:57:46.943Z,0.00
2022-10-15T02:58:46.920Z,0.00
2022-10-15T02:59:46.851Z,0.00
2022-10-15T03:00:46.852Z,0.00
2022-10-15T03:01:46.770Z,0.00
2022-10-15T03:02:46.728Z,0.00
2022-10-15T03:03:46.681Z,0.00
2022-10-15T03:04:46.659Z,0.00
2022-10-15T03:05:46.599Z,0.00
2022-10-15T03:06:46.564Z,0.00
2022-10-15T03:07:46.511Z,0.00
2022-10-15T03:08:46.464Z,0.00
2022-10-15T03:09:46.427Z,0.00
2022-10-15T03:10:46.496Z,0.00
2022-10-15T03:11:46.339Z,0.00
2022-10-15T03:12:46.311Z,0.00
2022-10-15T03:13:46.253Z,0.00
2022-10-15T03:14:46.216Z,0.00
2022-10-15T03:15:46.168Z,0.00
2022-10-15T03:16:46.139Z,0.00
2022-10-15T03:17:46.082Z,0.00
2022-10-15T03:18:46.044Z,0.00
2022-10-15T03:19:45.998Z,0.00
2022-10-15T03:20:45.950Z,0.00
2022-10-15T03:21:45.910Z,0.00
2022-10-15T03:22:45.889Z,0.00
2022-10-15T03:23:45.822Z,0.00
2022-10-15T03:24:45.783Z,0.00
2022-10-15T03:25:45.733Z,0.00
2022-10-15T03:26:45.696Z,0.00
2022-10-15T03:27:45.648Z,0.00
2022-10-15T03:28:45.659Z,0.00
2022-10-15T03:29:45.569Z,0.00
2022-10-15T03:30:45.528Z,0.00
2022-10-15T03:31:45.479Z,0.00
2022-10-15T03:32:45.441Z,0.00
2022-10-15T03:33:45.393Z,0.00
2022-10-15T03:34:45.383Z,0.00
2022-10-15T03:35:45.310Z,0.00
2022-10-15T03:36:45.271Z,0.00
2022-10-15T03:37:45.225Z,0.00
2022-10-15T03:38:45.179Z,0.00
2022-10-15T03:39:45.134Z,0.00
2022-10-15T03:40:45.141Z,0.00
2022-10-15T03:42:45.018Z,0.00
2022-10-15T03:43:44.969Z,0.00
2022-10-15T03:44:44.924Z,0.00
2022-10-15T03:45:44.884Z,0.00
2022-10-15T03:46:44.855Z,0.00
2022-10-15T03:47:44.794Z,0.00
2022-10-15T03:48:44.755Z,0.00
2022-10-15T03:49:44.710Z,0.00
2022-10-15T03:51:44.617Z,0.00
2022-10-15T03:52:44.602Z,0.00
2022-10-15T03:53:44.535Z,0.00
2022-10-15T03:54:44.496Z,0.00
2022-10-15T03:55:44.450Z,0.00
2022-10-15T03:56:44.407Z,0.00
2022-10-15T03:57:44.383Z,0.00
2022-10-15T03:58:44.319Z,0.00
2022-10-15T04:00:44.359Z,0.00
2022-10-15T04:01:44.190Z,0.00
2022-10-15T04:02:44.150Z,0.00
2022-10-15T04:03:44.129Z,0.00
2022-10-15T04:04:44.064Z,0.00
2022-10-15T04:05:44.020Z,0.00
2022-10-15T04:06:43.980Z,0.00
2022-10-15T04:07:43.962Z,0.00
2022-10-15T04:08:43.944Z,0.00
2022-10-15T04:09:43.861Z,0.00
2022-10-15T04:10:43.806Z,0.00
2022-10-15T04:11:43.763Z,0.00
2022-10-15T04:12:43.742Z,0.00
2022-10-15T04:13:43.678Z,0.00
2022-10-15T04:14:43.638Z,0.00
2022-10-15T04:15:43.592Z,0.00
2022-10-15T04:16:43.550Z,0.00
2022-10-15T04:17:43.569Z,0.00
2022-10-15T04:18:43.517Z,0.00
2022-10-15T04:19:43.424Z,0.00
2022-10-15T04:20:43.382Z,0.00
2022-10-15T04:21:43.336Z,0.00
2022-10-15T04:22:43.297Z,0.00
2022-10-15T04:23:43.253Z,0.00
2022-10-15T04:24:43.318Z,0.00
2022-10-15T04:25:43.167Z,0.00
2022-10-15T04:26:43.125Z,0.00
2022-10-15T04:27:43.079Z,0.00
2022-10-15T04:28:43.074Z,0.00
2022-10-15T04:29:42.994Z,0.00
2022-10-15T04:30:42.977Z,0.00
2022-10-15T04:31:42.907Z,0.00
2022-10-15T04:32:42.873Z,0.00
2022-10-15T04:33:42.829Z,0.00
2022-10-15T04:34:42.787Z,0.00
2022-10-15T04:35:42.743Z,0.00
2022-10-15T04:36:42.722Z,0.00
2022-10-15T04:37:42.663Z,0.00
2022-10-15T04:38:42.616Z,0.00
2022-10-15T04:39:42.570Z,0.00
2022-10-15T04:40:42.525Z,0.00
2022-10-15T04:41:42.483Z,0.00
2022-10-15T04:42:42.469Z,0.00
2022-10-15T04:43:42.401Z,0.00
2022-10-15T04:44:42.359Z,0.00
2022-10-15T04:45:42.312Z,0.00
2022-10-15T04:46:42.274Z,0.00
2022-10-15T04:47:42.226Z,0.00
2022-10-15T04:48:43.369Z,0.00
2022-10-15T04:49:42.142Z,0.00
2022-10-15T04:50:42.100Z,0.00
2022-10-15T04:51:42.058Z,0.00
2022-10-15T04:52:42.017Z,0.00
2022-10-15T04:53:41.974Z,0.00
2022-10-15T04:54:41.958Z,0.00
2022-10-15T04:55:41.922Z,0.00
2022-10-15T04:56:41.843Z,0.00
2022-10-15T04:57:41.802Z,0.00
2022-10-15T04:58:41.763Z,0.00
2022-10-15T04:59:41.714Z,0.00
2022-10-15T05:00:41.688Z,0.00
2022-10-15T05:01:41.632Z,0.00
2022-10-15T05:02:41.597Z,0.00
2022-10-15T05:03:44.161Z,0.00
2022-10-15T05:04:41.502Z,0.00
2022-10-15T05:05:41.455Z,0.00
2022-10-15T05:06:41.445Z,0.00
2022-10-15T05:07:41.372Z,0.00
2022-10-15T05:08:41.338Z,0.00
2022-10-15T05:09:46.019Z,0.00
2022-10-15T05:10:41.251Z,0.00
2022-10-15T05:11:41.202Z,0.00
2022-10-15T05:13:41.131Z,0.00
2022-10-15T05:14:41.078Z,0.00
2022-10-15T05:15:41.035Z,0.00
2022-10-15T05:16:41.017Z,0.00
2022-10-15T05:17:40.950Z,0.00
2022-10-15T05:18:40.916Z,4.00
2022-10-15T05:19:40.882Z,4.00
2022-10-15T05:20:40.825Z,0.00
2022-10-15T05:21:40.809Z,4.00
2022-10-15T05:22:40.737Z,8.00
2022-10-15T05:23:40.701Z,4.00
2022-10-15T05:24:40.650Z,8.00
2022-10-15T05:25:40.634Z,12.00
2022-10-15T05:26:40.567Z,8.00
2022-10-15T05:27:40.521Z,16.00
2022-10-15T05:28:40.556Z,20.00
2022-10-15T05:29:40.441Z,20.00
2022-10-15T05:30:40.400Z,24.00
2022-10-15T05:31:40.395Z,28.00
2022-10-15T05:32:40.308Z,36.00
2022-10-15T05:33:40.270Z,40.00
2022-10-15T05:34:40.223Z,48.00
2022-10-15T05:35:40.194Z,56.00
2022-10-15T05:36:40.139Z,64.00
2022-10-15T05:37:40.118Z,72.00
2022-10-15T05:38:40.077Z,88.00
2022-10-15T05:39:40.006Z,100.00
2022-10-15T05:40:39.970Z,116.00
2022-10-15T05:41:39.928Z,128.00
2022-10-15T05:42:39.887Z,148.00
2022-10-15T05:43:41.375Z,168.00
2022-10-15T05:44:39.819Z,188.00
2022-10-15T05:45:39.754Z,204.00
2022-10-15T05:46:39.714Z,228.00
2022-10-15T05:47:39.671Z,248.00
2022-10-15T05:48:39.628Z,268.00
2022-10-15T05:49:39.587Z,288.00
2022-10-15T05:50:39.581Z,312.00
2022-10-15T05:51:39.504Z,336.00
2022-10-15T05:52:39.458Z,368.00
2022-10-15T05:53:39.416Z,400.00
2022-10-15T05:54:39.389Z,436.00
2022-10-15T05:55:39.340Z,468.00
2022-10-15T05:56:39.303Z,504.00
2022-10-15T05:57:39.250Z,536.00
2022-10-15T05:58:39.205Z,572.00
2022-10-15T05:59:39.161Z,616.00
2022-10-15T06:03:48.361Z,832.00
2022-10-15T06:04:48.306Z,896.00
2022-10-15T06:05:48.255Z,968.00
2022-10-15T06:06:48.214Z,1048.00
2022-10-15T06:07:48.189Z,1144.00
2022-10-15T06:08:48.127Z,1248.00
2022-10-15T06:09:48.083Z,1372.00
2022-10-15T06:10:48.047Z,1484.00
2022-10-15T06:11:47.997Z,1608.00
2022-10-15T06:12:47.955Z,1712.00
2022-10-15T06:13:47.940Z,1804.00
2022-10-15T06:14:47.868Z,1856.00
2022-10-15T06:15:47.823Z,1864.00
2022-10-15T06:16:47.780Z,1868.00
2022-10-15T06:17:47.743Z,1920.00
2022-10-15T06:18:47.698Z,1964.00
2022-10-15T06:19:47.664Z,2032.00
2022-10-15T06:20:47.613Z,2116.00
2022-10-15T06:21:47.567Z,2204.00
2022-10-15T06:22:47.530Z,2292.00
2022-10-15T06:23:47.480Z,2344.00
2022-10-15T06:24:47.439Z,2412.00
2022-10-15T06:25:47.416Z,2504.00
2022-10-15T06:26:47.355Z,2616.00
2022-10-15T06:27:47.310Z,2716.00
2022-10-15T06:28:47.347Z,2808.00
2022-10-15T06:29:47.231Z,2876.00
2022-10-15T06:30:47.187Z,2920.00
2022-10-15T06:31:47.156Z,2972.00
2022-10-15T06:32:47.109Z,3040.00
2022-10-15T06:33:47.054Z,3148.00
2022-10-15T06:34:47.049Z,3244.00
2022-10-15T06:35:46.970Z,3324.00
2022-10-15T06:36:46.928Z,3352.00
2022-10-15T06:37:46.882Z,3368.00
2022-10-15T06:38:46.843Z,3428.00
2022-10-15T06:39:46.801Z,3520.00
2022-10-15T06:40:46.769Z,3628.00
2022-10-15T06:41:46.740Z,3744.00
2022-10-15T06:42:46.672Z,3832.00
2022-10-15T06:43:46.700Z,3892.00
2022-10-15T06:44:46.586Z,3940.00
2022-10-15T06:45:46.544Z,3992.00
2022-10-15T06:46:46.506Z,4008.00
2022-10-15T06:47:46.482Z,4004.00
2022-10-15T06:48:46.419Z,4060.00
2022-10-15T06:49:46.373Z,4260.00
2022-10-15T06:50:46.351Z,4532.00
2022-10-15T06:51:46.289Z,4768.00
2022-10-15T06:52:46.285Z,4956.00
2022-10-15T06:53:46.205Z,5060.00
2022-10-15T06:54:46.166Z,5060.00
2022-10-15T06:55:46.120Z,5060.00
2022-10-15T06:56:46.099Z,5176.00
2022-10-15T06:57:46.036Z,5384.00
2022-10-15T06:58:46.000Z,5640.00
2022-10-15T06:59:45.947Z,5888.00
2022-10-15T07:00:45.912Z,6092.00
2022-10-15T07:01:45.870Z,6308.00
2022-10-15T07:02:45.847Z,6616.00
2022-10-15T07:03:45.783Z,7000.00
2022-10-15T07:04:45.737Z,7248.00
2022-10-15T07:05:45.699Z,7260.00
2022-10-15T07:06:45.684Z,7276.00
2022-10-15T07:07:45.614Z,7224.00
2022-10-15T07:08:45.572Z,7124.00
2022-10-15T07:09:45.526Z,7156.00
2022-10-15T07:10:45.489Z,7448.00
2022-10-15T07:11:45.442Z,7900.00
2022-10-15T07:12:45.420Z,8212.00
2022-10-15T07:13:45.362Z,8256.00
2022-10-15T07:14:45.320Z,8208.00
2022-10-15T07:15:45.276Z,8264.00
2022-10-15T07:16:45.233Z,8364.00
2022-10-15T07:17:45.195Z,8344.00
2022-10-15T07:18:45.171Z,8328.00
2022-10-15T07:19:45.108Z,8500.00
2022-10-15T07:20:45.066Z,8804.00
2022-10-15T07:21:45.027Z,8928.00
2022-10-15T07:22:44.980Z,8820.00
2022-10-15T07:23:44.940Z,8660.00
2022-10-15T07:24:44.913Z,8508.00
2022-10-15T07:25:44.857Z,8368.00
2022-10-15T07:26:44.832Z,8456.00
2022-10-15T07:27:44.775Z,8524.00
2022-10-15T07:28:44.788Z,8252.00
2022-10-15T07:29:44.686Z,7860.00
2022-10-15T07:30:44.663Z,7568.00
2022-10-15T07:32:46.452Z,7004.00
2022-10-15T07:33:44.520Z,6504.00
2022-10-15T07:34:44.482Z,6248.00
2022-10-15T07:35:53.562Z,6532.00
2022-10-15T07:36:44.395Z,6924.00
2022-10-15T07:37:44.464Z,7040.00
2022-10-15T07:38:44.312Z,6936.00
2022-10-15T07:39:44.268Z,8068.00
2022-10-15T07:40:44.229Z,9680.00
2022-10-15T07:41:44.188Z,11036.00
2022-10-15T07:42:44.148Z,11932.00
2022-10-15T07:43:44.123Z,12320.00
2022-10-15T07:44:44.058Z,12596.00
2022-10-15T07:45:44.014Z,12844.00
2022-10-15T07:46:43.981Z,13044.00
2022-10-15T07:47:43.937Z,13096.00
2022-10-15T07:48:43.895Z,12936.00
2022-10-15T07:49:43.868Z,12528.00
2022-10-15T07:50:43.850Z,11860.00
2022-10-15T07:51:43.774Z,11624.00
2022-10-15T07:52:43.726Z,12288.00
2022-10-15T07:53:43.690Z,13732.00
2022-10-15T07:54:43.645Z,15148.00
2022-10-15T07:55:43.607Z,16400.00
2022-10-15T07:56:43.597Z,16792.00
2022-10-15T07:57:43.522Z,16496.00
2022-10-15T07:58:43.495Z,16188.00
2022-10-15T07:59:43.444Z,15988.00
2022-10-15T08:00:43.397Z,15524.00
2022-10-15T08:01:45.894Z,14980.00
2022-10-15T08:02:43.344Z,14576.00
2022-10-15T08:03:43.276Z,14092.00
2022-10-15T08:04:43.231Z,13556.00
2022-10-15T08:05:43.190Z,13404.00
2022-10-15T08:06:43.153Z,13672.00
2022-10-15T08:07:43.109Z,14392.00
2022-10-15T08:08:43.091Z,15668.00
2022-10-15T08:09:43.064Z,16996.00
2022-10-15T08:10:42.990Z,18016.00
2022-10-15T08:11:42.950Z,17824.00
2022-10-15T08:12:42.909Z,16416.00
2022-10-15T08:13:42.868Z,15324.00
2022-10-15T08:14:42.847Z,14976.00
2022-10-15T08:15:42.788Z,15448.00
2022-10-15T08:16:42.746Z,16168.00
2022-10-15T08:17:42.709Z,16724.00
2022-10-15T08:18:42.705Z,16972.00
2022-10-15T08:19:42.648Z,17536.00
2022-10-15T08:20:42.603Z,18080.00
2022-10-15T08:21:43.977Z,18304.00
2022-10-15T08:22:42.502Z,17984.00
2022-10-15T08:23:42.463Z,17536.00
2022-10-15T08:24:42.418Z,17020.00
2022-10-15T08:25:42.403Z,16796.00
2022-10-15T08:26:42.338Z,16864.00
2022-10-15T08:27:42.301Z,17440.00
2022-10-15T08:28:42.308Z,17696.00
2022-10-15T08:29:42.219Z,17120.00
2022-10-15T08:30:42.184Z,16124.00
2022-10-15T08:31:42.155Z,15044.00
2022-10-15T08:32:42.107Z,13992.00
2022-10-15T08:33:42.080Z,13904.00
2022-10-15T08:34:42.022Z,14560.00
2022-10-15T08:35:41.981Z,17696.00
2022-10-15T08:36:41.937Z,22656.00
2022-10-15T08:37:41.907Z,25664.00
2022-10-15T08:38:41.865Z,23584.00
2022-10-15T08:39:41.839Z,21536.00
2022-10-15T08:40:41.781Z,20512.00
2022-10-15T08:41:41.740Z,19840.00
2022-10-15T08:42:41.703Z,19520.00
2022-10-15T08:43:41.665Z,19936.00
2022-10-15T08:44:41.625Z,20736.00
2022-10-15T08:45:41.601Z,21280.00
2022-10-15T08:46:41.544Z,21568.00
2022-10-15T08:47:41.503Z,21280.00
2022-10-15T08:48:41.466Z,20064.00
2022-10-15T08:49:41.433Z,18720.00
2022-10-15T08:50:41.411Z,17984.00
2022-10-15T08:51:41.348Z,17920.00
2022-10-15T08:52:41.311Z,18560.00
2022-10-15T08:53:41.269Z,19744.00
2022-10-15T08:54:41.233Z,20320.00
2022-10-15T08:55:41.191Z,19712.00
2022-10-15T08:56:41.175Z,18560.00
2022-10-15T08:57:41.123Z,17568.00
2022-10-15T08:58:41.073Z,16828.00
2022-10-15T08:59:41.032Z,16976.00
2022-10-15T09:00:40.995Z,17760.00
2022-10-15T09:01:40.960Z,17824.00
2022-10-15T09:02:40.984Z,18688.00
2022-10-15T09:03:40.874Z,19584.00
2022-10-15T09:04:40.836Z,19360.00
2022-10-15T09:05:40.823Z,18080.00
2022-10-15T09:06:40.760Z,16512.00
2022-10-15T09:07:40.719Z,15068.00
2022-10-15T09:08:40.682Z,14484.00
2022-10-15T09:09:40.647Z,14364.00
2022-10-15T09:10:40.602Z,13848.00
2022-10-15T09:11:40.592Z,13832.00
2022-10-15T09:12:40.528Z,13744.00
2022-10-15T09:13:40.841Z,13476.00
2022-10-15T09:14:40.454Z,13400.00
2022-10-15T09:15:40.413Z,13240.00
2022-10-15T09:16:40.406Z,13072.00
2022-10-15T09:17:40.365Z,13648.00
2022-10-15T09:18:40.294Z,13384.00
2022-10-15T09:19:40.260Z,12704.00
2022-10-15T09:20:40.218Z,13552.00
2022-10-15T09:21:40.176Z,13528.00
2022-10-15T09:22:40.191Z,13056.00
2022-10-15T09:23:40.117Z,12472.00
2022-10-15T09:24:40.060Z,13872.00
2022-10-15T09:25:40.024Z,15680.00
2022-10-15T09:26:39.981Z,16148.00
2022-10-15T09:27:39.960Z,16164.00
2022-10-15T09:28:39.940Z,15800.00
2022-10-15T09:29:39.890Z,15196.00
2022-10-15T09:30:39.826Z,14580.00
2022-10-15T09:31:39.786Z,14184.00
2022-10-15T09:32:39.742Z,14092.00
2022-10-15T09:33:39.709Z,14072.00
2022-10-15T09:34:39.670Z,13992.00
2022-10-15T09:35:39.645Z,14012.00
2022-10-15T09:36:39.595Z,14436.00
2022-10-15T09:37:39.550Z,15040.00
2022-10-15T09:38:39.507Z,15620.00
2022-10-15T09:39:39.471Z,16132.00
2022-10-15T09:40:39.473Z,16732.00
2022-10-15T09:41:39.400Z,17728.00
2022-10-15T09:42:39.352Z,18624.00
2022-10-15T09:43:39.310Z,19648.00
2022-10-15T09:44:39.271Z,20832.00
2022-10-15T09:45:39.228Z,21568.00
2022-10-15T09:46:39.214Z,22368.00
2022-10-15T09:47:39.157Z,22912.00
2022-10-15T09:48:39.115Z,22720.00
2022-10-15T09:49:39.076Z,20576.00
2022-10-15T09:50:39.032Z,19136.00
2022-10-15T09:51:38.997Z,18880.00
2022-10-15T09:52:38.987Z,19328.00
2022-10-15T09:53:38.914Z,19328.00
2022-10-15T09:54:38.875Z,18400.00
2022-10-15T09:55:38.837Z,16840.00
2022-10-15T09:56:38.793Z,16116.00
2022-10-15T09:57:38.756Z,16164.00
2022-10-15T09:58:38.736Z,16408.00
2022-10-15T09:59:38.677Z,16688.00
2022-10-15T10:00:38.641Z,16940.00
2022-10-15T10:01:38.639Z,16876.00
2022-10-15T10:02:38.629Z,16512.00
2022-10-15T10:03:38.518Z,16124.00
2022-10-15T10:04:38.496Z,16292.00
2022-10-15T10:05:38.438Z,17600.00
2022-10-15T10:06:38.401Z,19552.00
2022-10-15T10:07:38.364Z,21248.00
2022-10-15T10:08:38.352Z,22752.00
2022-10-15T10:09:38.291Z,24128.00
2022-10-15T10:10:39.216Z,25344.00
2022-10-15T10:11:38.197Z,26624.00
2022-10-15T10:12:38.156Z,27648.00
2022-10-15T10:13:38.119Z,29760.00
2022-10-15T10:14:38.103Z,30976.00
2022-10-15T10:15:38.038Z,32608.00
2022-10-15T10:16:37.999Z,36032.00
2022-10-15T10:17:37.960Z,37472.00
2022-10-15T10:18:37.921Z,37856.00
2022-10-15T10:19:37.876Z,38368.00
2022-10-15T10:20:37.859Z,35456.00
2022-10-15T10:21:37.799Z,34560.00
2022-10-15T10:22:37.759Z,34016.00
2022-10-15T10:23:37.722Z,33952.00
2022-10-15T10:24:37.678Z,33824.00
2022-10-15T10:25:37.639Z,32928.00
2022-10-15T10:26:37.624Z,32000.00
2022-10-15T10:27:37.561Z,31648.00
2022-10-15T10:28:40.513Z,31328.00
2022-10-15T10:29:37.613Z,30592.00
2022-10-15T10:30:37.445Z,28960.00
2022-10-15T10:31:37.411Z,28608.00
2022-10-15T10:32:37.361Z,28448.00
2022-10-15T10:33:37.327Z,28320.00
2022-10-15T10:34:37.286Z,28416.00
2022-10-15T10:35:37.262Z,28736.00
2022-10-15T10:36:39.449Z,29376.00
2022-10-15T10:37:37.188Z,29888.00
2022-10-15T10:38:37.134Z,30400.00
2022-10-15T10:39:37.092Z,30656.00
2022-10-15T10:40:37.069Z,30400.00
2022-10-15T10:41:37.016Z,29632.00
2022-10-15T10:42:37.021Z,28544.00
2022-10-15T10:43:39.237Z,27136.00
2022-10-15T10:44:36.893Z,25536.00
2022-10-15T10:45:36.861Z,24160.00
2022-10-15T10:46:38.615Z,23840.00
2022-10-15T10:47:36.786Z,24640.00
2022-10-15T10:48:36.764Z,25696.00
2022-10-15T10:49:36.704Z,26176.00
2022-10-15T10:50:36.663Z,26464.00
2022-10-15T10:51:36.627Z,26816.00
2022-10-15T10:52:36.588Z,27904.00
2022-10-15T10:53:36.548Z,30592.00
2022-10-15T10:54:36.555Z,35136.00
2022-10-15T10:55:36.473Z,40512.00
2022-10-15T10:56:36.457Z,38592.00
2022-10-15T10:57:36.394Z,47488.00
2022-10-15T10:58:36.378Z,39840.00
2022-10-15T10:59:36.319Z,41408.00
2022-10-15T11:00:36.329Z,44384.00
2022-10-15T11:01:36.238Z,98240.00
2022-10-15T11:02:36.206Z,63744.00
2022-10-15T11:03:36.191Z,57120.00
2022-10-15T11:04:36.165Z,35456.00
2022-10-15T11:05:36.093Z,30944.00
2022-10-15T11:06:36.054Z,44928.00
2022-10-15T11:07:36.042Z,56384.00
2022-10-15T11:08:35.985Z,35520.00
2022-10-15T11:09:35.945Z,33696.00
2022-10-15T11:10:35.913Z,34336.00
2022-10-15T11:11:35.872Z,35200.00
2022-10-15T11:12:35.860Z,50880.00
2022-10-15T11:13:35.828Z,46368.00
2022-10-15T11:14:35.767Z,40768.00
2022-10-15T11:15:35.724Z,89504.00
2022-10-15T11:16:35.693Z,63936.00
2022-10-15T11:17:35.654Z,31488.00
2022-10-15T11:18:35.638Z,49152.00
2022-10-15T11:19:55.011Z,27008.00
2022-10-15T11:20:49.898Z,37824.00
2022-10-15T11:21:35.512Z,83712.00
2022-10-15T11:22:35.479Z,89152.00
2022-10-15T11:23:35.445Z,22400.00
2022-10-15T11:24:48.247Z,88192.00
2022-10-15T11:25:35.370Z,73824.00
2022-10-15T11:26:41.668Z,95744.00
2022-10-15T11:27:35.303Z,97152.00
2022-10-15T11:28:35.351Z,72576.00
2022-10-15T11:29:35.236Z,40384.00
2022-10-15T11:30:35.315Z,52256.00
2022-10-15T11:31:43.989Z,63360.00
2022-10-15T11:32:54.591Z,101568.00
2022-10-15T11:33:35.105Z,33664.00
2022-10-15T11:34:35.070Z,98176.00
2022-10-15T11:35:52.443Z,82336.00
2022-10-15T11:36:35.024Z,71264.00
2022-10-15T11:37:34.971Z,44384.00
2022-10-15T11:38:34.938Z,63008.00
2022-10-15T11:39:34.906Z,62400.00
2022-10-15T11:40:34.905Z,64800.00
2022-10-15T11:41:34.839Z,33472.00
2022-10-15T11:42:34.809Z,33376.00
2022-10-15T11:43:34.771Z,33856.00
2022-10-15T11:44:34.744Z,39264.00
2022-10-15T11:45:34.708Z,92352.00
2022-10-15T11:46:34.680Z,113312.00
2022-10-15T11:47:34.636Z,50496.00
2022-10-15T11:48:34.605Z,39680.00
2022-10-15T11:50:34.538Z,104192.00
2022-10-15T11:51:34.533Z,99232.00
2022-10-15T11:52:34.473Z,95904.00
2022-10-15T11:53:34.435Z,71968.00
2022-10-15T11:54:34.401Z,79328.00
2022-10-15T11:55:34.374Z,89344.00
2022-10-15T11:56:36.486Z,71968.00
2022-10-15T11:57:34.322Z,66496.00
2022-10-15T11:58:34.274Z,70112.00
2022-10-15T11:59:34.242Z,59744.00
2022-10-15T12:00:34.206Z,66656.00
2022-10-15T12:01:34.176Z,77152.00
2022-10-15T12:02:34.147Z,90432.00
2022-10-15T12:03:34.133Z,94336.00
2022-10-15T12:04:34.837Z,70880.00
2022-10-15T12:05:34.051Z,74432.00
2022-10-15T12:06:34.035Z,73184.00
2022-10-15T12:07:33.984Z,94208.00
2022-10-15T12:08:33.954Z,64000.00
2022-10-15T12:09:33.918Z,69024.00
2022-10-15T12:10:33.905Z,83744.00
2022-10-15T12:11:33.859Z,77888.00
2022-10-15T12:12:33.833Z,61280.00
2022-10-15T12:13:33.793Z,84800.00
2022-10-15T12:14:33.766Z,74720.00
2022-10-15T12:15:33.744Z,49056.00
2022-10-15T12:16:33.703Z,45792.00
2022-10-15T12:17:33.671Z,84832.00
2022-10-15T12:18:33.640Z,62752.00
2022-10-15T12:19:33.605Z,93280.00
2022-10-15T12:20:33.589Z,91840.00
2022-10-15T12:21:33.537Z,76928.00
2022-10-15T12:22:34.198Z,81824.00
2022-10-15T12:23:33.478Z,83680.00
2022-10-15T12:24:33.445Z,84832.00
2022-10-15T12:25:33.414Z,82016.00
2022-10-15T12:26:33.408Z,76000.00
2022-10-15T12:27:33.349Z,82240.00
2022-10-15T12:28:33.390Z,89088.00
2022-10-15T12:29:33.284Z,90560.00
2022-10-15T12:30:33.266Z,92000.00
2022-10-15T12:31:38.297Z,90080.00
2022-10-15T12:32:33.204Z,89056.00
2022-10-15T12:33:33.160Z,89408.00
2022-10-15T12:34:33.135Z,89408.00
2022-10-15T12:35:33.099Z,91808.00
2022-10-15T12:36:33.090Z,62144.00
2022-10-15T12:37:33.042Z,91808.00